Time;durP1;ratioP1;P1;durP2;ratioP2;P2;SDS_P1;SDS_P2;PMS_P1;PMS_P2;Temp;Humidity;BMP_temperature;BMP_pressure;BME280_temperature;BME280_humidity;BME280_pressure;Samples;Min_cycle;Max_cycle;Signal;HPM_P1;HPM_P2
2022/11/08 00:02:57;;;;;;;70.30;53.58;;;22.10;60.90;;;;;;4745014;55;21018;-49
2022/11/08 00:18:41;;;;;;;70.37;53.63;;;22.20;60.90;;;;;;4745309;55;21081;-41
2022/11/08 00:23:43;;;;;;;69.70;52.35;;;22.10;61.00;;;;;;4896371;55;21058;-39
2022/11/08 00:28:44;;;;;;;70.20;52.92;;;22.10;61.00;;;;;;4811041;55;21010;-44
2022/11/08 00:33:44;;;;;;;64.07;49.92;;;22.10;61.00;;;;;;4875078;55;21009;-43
2022/11/08 00:38:45;;;;;;;69.65;52.72;;;22.10;60.90;;;;;;5230515;55;21069;-39
2022/11/08 00:43:46;;;;;;;67.90;51.20;;;22.10;61.00;;;;;;4968694;55;22191;-44
2022/11/08 00:48:47;;;;;;;66.82;50.42;;;22.10;60.90;;;;;;4870250;55;21080;-35
2022/11/08 00:53:48;;;;;;;64.45;50.17;;;22.10;61.60;;;;;;4745437;59;21001;-40
2022/11/08 00:58:48;;;;;;;65.72;51.08;;;22.10;61.10;;;;;;5101549;55;21106;-48
2022/11/08 01:03:50;;;;;;;65.03;50.83;;;22.10;60.90;;;;;;4745420;59;20998;-39
2022/11/08 01:08:51;;;;;;;66.10;50.80;;;22.10;60.90;;;;;;4926719;55;21065;-41
2022/11/08 01:13:56;;;;;;;65.45;50.33;;;22.00;60.80;;;;;;4744911;59;21559;-47
2022/11/08 01:18:58;;;;;;;61.03;46.78;;;22.10;60.80;;;;;;4774766;55;20990;-39
2022/11/08 01:23:59;;;;;;;61.88;47.55;;;22.10;60.80;;;;;;4981327;55;21026;-46
2022/11/08 01:29:00;;;;;;;59.10;45.55;;;22.10;60.70;;;;;;4761957;55;21001;-37
2022/11/08 01:34:01;;;;;;;59.28;46.08;;;22.00;60.60;;;;;;4765240;55;21011;-49
2022/11/08 01:39:02;;;;;;;59.53;46.63;;;22.10;60.70;;;;;;4745673;59;21057;-45
2022/11/08 01:44:03;;;;;;;58.15;44.85;;;22.10;60.70;;;;;;4780528;55;21005;-41
2022/11/08 01:50:58;;;;;;;59.70;45.40;;;22.10;60.80;;;;;;4841939;55;21116;-43
2022/11/08 01:55:59;;;;;;;58.65;45.75;;;22.00;60.70;;;;;;4877778;55;21065;-42
2022/11/08 02:01:01;;;;;;;56.72;44.97;;;22.00;60.50;;;;;;4745484;59;20989;-47
2022/11/08 02:06:03;;;;;;;52.30;43.20;;;22.00;60.40;;;;;;4745639;59;21069;-40
2022/11/08 02:11:05;;;;;;;54.70;42.75;;;22.00;60.40;;;;;;4794305;55;21010;-34
2022/11/08 02:16:11;;;;;;;55.50;43.90;;;22.00;60.40;;;;;;4839691;55;21552;-39
2022/11/08 02:22:17;;;;;;;56.70;44.80;;;22.10;60.30;;;;;;4745335;59;21032;-41
2022/11/08 02:27:17;;;;;;;55.25;43.20;;;22.00;60.30;;;;;;4745827;59;21054;-37
2022/11/08 02:32:18;;;;;;;53.53;41.63;;;22.00;60.20;;;;;;5026446;55;21025;-42
2022/11/08 02:37:20;;;;;;;54.40;41.85;;;22.00;60.20;;;;;;4932693;55;21065;-43
2022/11/08 02:42:21;;;;;;;51.03;40.60;;;22.00;60.30;;;;;;4745516;55;21049;-40
2022/11/08 02:47:23;;;;;;;48.35;38.47;;;22.00;60.30;;;;;;4745788;55;21002;-41
2022/11/08 02:52:23;;;;;;;50.08;40.88;;;22.00;60.30;;;;;;4900034;55;21555;-42
2022/11/08 02:57:24;;;;;;;52.40;41.63;;;22.00;60.20;;;;;;4793759;55;21014;-42
2022/11/08 03:02:25;;;;;;;52.80;40.20;;;22.00;60.10;;;;;;4850555;55;21061;-46
2022/11/08 03:07:26;;;;;;;50.90;38.42;;;22.00;60.20;;;;;;4759646;55;21029;-40
2022/11/08 03:12:27;;;;;;;47.85;38.15;;;22.10;60.10;;;;;;4888316;55;21038;-44
2022/11/08 03:17:28;;;;;;;48.53;38.15;;;22.00;60.00;;;;;;4975040;55;21029;-42
2022/11/08 03:22:28;;;;;;;45.70;37.92;;;22.00;60.00;;;;;;5208314;55;21011;-44
2022/11/08 03:27:29;;;;;;;48.03;39.45;;;22.00;60.00;;;;;;5230567;55;21013;-43
2022/11/08 03:32:30;;;;;;;45.22;36.58;;;22.00;60.00;;;;;;4744675;59;21544;-36
2022/11/08 03:37:31;;;;;;;43.95;35.95;;;22.00;60.00;;;;;;4993786;55;21558;-40
2022/11/08 03:42:32;;;;;;;47.03;36.83;;;22.00;60.00;;;;;;4745323;59;21461;-42
2022/11/08 03:47:37;;;;;;;44.22;35.20;;;22.00;59.90;;;;;;4745358;59;21057;-45
2022/11/08 03:53:11;;;;;;;48.65;37.60;;;22.00;59.90;;;;;;4911775;55;21480;-42
2022/11/08 03:58:12;;;;;;;46.17;36.58;;;22.00;59.90;;;;;;4802392;55;21069;-42
2022/11/08 04:03:13;;;;;;;45.55;36.28;;;22.00;59.80;;;;;;4745426;59;21515;-45
2022/11/08 04:08:14;;;;;;;43.45;35.22;;;22.00;59.90;;;;;;4745419;55;21046;-43
2022/11/08 04:23:53;;;;;;;42.33;34.00;;;22.00;59.80;;;;;;4745027;55;21464;-45
2022/11/08 04:28:54;;;;;;;39.65;32.67;;;21.90;59.80;;;;;;4892150;55;21336;-38
2022/11/08 04:33:55;;;;;;;40.30;32.78;;;22.00;59.90;;;;;;4767905;55;21041;-48
2022/11/08 04:38:55;;;;;;;39.50;31.92;;;22.00;59.80;;;;;;4941108;55;20994;-41
2022/11/08 04:43:57;;;;;;;38.03;31.15;;;22.00;59.80;;;;;;5114338;55;20993;-42
2022/11/08 04:48:59;;;;;;;38.72;31.85;;;22.00;59.80;;;;;;4802497;55;21042;-43
2022/11/08 04:54:01;;;;;;;40.83;32.75;;;22.00;59.80;;;;;;5062890;55;21002;-45
2022/11/08 04:59:02;;;;;;;40.25;32.33;;;21.90;59.70;;;;;;4969031;55;20982;-41
2022/11/08 05:04:03;;;;;;;39.40;31.08;;;22.00;59.70;;;;;;5052247;55;21017;-40
2022/11/08 05:09:04;;;;;;;37.83;30.40;;;22.00;59.70;;;;;;4764734;55;21025;-44
2022/11/08 05:14:05;;;;;;;36.75;29.52;;;22.00;59.70;;;;;;4975303;55;21038;-44
2022/11/08 05:19:05;;;;;;;35.75;28.92;;;22.00;59.70;;;;;;4745260;55;20985;-43
2022/11/08 05:24:09;;;;;;;36.05;28.90;;;21.90;59.60;;;;;;4866948;55;21081;-46
2022/11/08 05:29:12;;;;;;;34.70;28.40;;;22.00;59.60;;;;;;5034524;55;21006;-42
2022/11/08 05:34:13;;;;;;;33.47;27.62;;;22.00;59.70;;;;;;4814635;55;20986;-44
2022/11/08 05:39:13;;;;;;;35.33;29.23;;;21.90;59.50;;;;;;4762421;55;20982;-42
2022/11/08 05:44:14;;;;;;;34.60;27.95;;;21.90;59.40;;;;;;4873303;55;21149;-43
2022/11/08 05:49:15;;;;;;;34.95;28.80;;;21.90;59.50;;;;;;5180909;55;21082;-40
2022/11/08 05:54:16;;;;;;;33.58;26.83;;;22.00;59.50;;;;;;4823331;55;21523;-42
2022/11/08 05:59:17;;;;;;;32.95;27.02;;;21.90;59.40;;;;;;4870304;55;21494;-41
2022/11/08 06:04:18;;;;;;;34.83;28.02;;;21.90;59.40;;;;;;5230955;55;21001;-48
2022/11/08 06:09:19;;;;;;;32.38;26.40;;;21.90;59.40;;;;;;4786862;55;21013;-46
2022/11/08 06:14:20;;;;;;;33.85;27.52;;;21.90;59.30;;;;;;4785778;55;21496;-42
2022/11/08 06:19:20;;;;;;;31.00;25.70;;;21.90;59.30;;;;;;4816660;55;20990;-43
2022/11/08 06:24:21;;;;;;;32.92;26.75;;;21.90;59.40;;;;;;4790164;55;21009;-49
2022/11/08 06:29:22;;;;;;;32.63;26.65;;;21.90;59.30;;;;;;4745365;59;21073;-44
2022/11/08 06:34:23;;;;;;;31.83;25.55;;;22.00;59.30;;;;;;4860778;55;21018;-45
2022/11/08 06:39:24;;;;;;;33.97;27.10;;;21.90;59.20;;;;;;4771380;55;21546;-46
2022/11/08 06:44:25;;;;;;;34.50;26.92;;;21.90;59.20;;;;;;4811935;55;21073;-48
2022/11/08 06:49:26;;;;;;;31.80;25.92;;;21.90;59.20;;;;;;4784422;55;21058;-49
2022/11/08 06:54:27;;;;;;;31.87;26.50;;;21.90;59.40;;;;;;4822004;55;21001;-47
2022/11/08 06:59:28;;;;;;;33.75;27.10;;;21.90;59.20;;;;;;4836221;55;21085;-44
2022/11/08 07:04:29;;;;;;;32.78;26.23;;;21.90;59.30;;;;;;4818721;55;21129;-48
2022/11/08 07:09:30;;;;;;;32.88;26.60;;;21.90;59.20;;;;;;4796322;55;21062;-48
2022/11/08 07:14:30;;;;;;;33.65;27.85;;;21.90;59.20;;;;;;4744645;59;21030;-41
2022/11/08 07:19:31;;;;;;;32.58;27.40;;;21.90;59.10;;;;;;4745154;59;21030;-45
2022/11/08 07:24:32;;;;;;;34.45;27.73;;;21.90;59.10;;;;;;4744788;59;21547;-42
2022/11/08 07:29:33;;;;;;;31.80;26.05;;;21.90;59.20;;;;;;4744395;55;21089;-49
2022/11/08 07:34:35;;;;;;;35.60;28.67;;;21.90;59.10;;;;;;4783061;55;21037;-43
2022/11/08 07:39:35;;;;;;;31.35;26.75;;;21.90;59.20;;;;;;4904911;55;21551;-44
2022/11/08 07:44:36;;;;;;;35.38;28.67;;;21.90;59.10;;;;;;4907387;55;21021;-47
2022/11/08 07:49:37;;;;;;;34.03;28.67;;;21.90;59.10;;;;;;4836978;55;21073;-43
2022/11/08 07:54:38;;;;;;;37.25;29.52;;;21.90;59.10;;;;;;4884599;55;21018;-45
2022/11/08 07:59:39;;;;;;;37.38;29.52;;;21.90;59.10;;;;;;5158305;55;20981;-44
2022/11/08 08:04:39;;;;;;;40.78;32.28;;;21.90;59.00;;;;;;4795360;55;21548;-43
2022/11/08 08:09:40;;;;;;;42.75;34.08;;;21.90;58.80;;;;;;4831717;55;21085;-40
2022/11/08 08:14:41;;;;;;;49.25;35.95;;;22.00;58.70;;;;;;4828528;55;21129;-42
2022/11/08 08:19:42;;;;;;;51.45;38.63;;;22.00;58.60;;;;;;4843903;55;20994;-40
2022/11/08 08:24:43;;;;;;;53.22;41.35;;;22.10;58.50;;;;;;4753396;55;21109;-39
2022/11/08 08:29:43;;;;;;;56.33;43.17;;;22.10;58.50;;;;;;4778452;55;21511;-49
2022/11/08 08:34:44;;;;;;;57.95;43.72;;;22.20;58.40;;;;;;4750098;55;21092;-38
2022/11/08 08:39:45;;;;;;;61.70;46.13;;;22.20;58.70;;;;;;4744823;59;21070;-40
2022/11/08 08:44:46;;;;;;;65.65;47.40;;;22.20;58.40;;;;;;4904689;55;21050;-32
2022/11/08 08:49:47;;;;;;;65.95;49.35;;;22.20;58.30;;;;;;4872826;55;21010;-39
2022/11/08 08:54:47;;;;;;;71.43;51.17;;;22.30;58.20;;;;;;4798339;55;21053;-31
2022/11/08 08:59:48;;;;;;;73.05;53.28;;;22.30;58.20;;;;;;4800722;55;21069;-39
2022/11/08 09:04:49;;;;;;;75.62;54.03;;;22.30;58.10;;;;;;4769510;55;21508;-42
2022/11/08 09:09:50;;;;;;;75.12;54.13;;;22.40;58.10;;;;;;4744903;55;21010;-35
2022/11/08 09:14:50;;;;;;;83.00;56.60;;;22.40;58.30;;;;;;4812615;55;21101;-39
2022/11/08 09:19:51;;;;;;;81.90;58.78;;;22.40;58.20;;;;;;4766567;55;21100;-47
2022/11/08 09:24:52;;;;;;;89.53;62.80;;;22.40;57.70;;;;;;4807837;55;21069;-44
2022/11/08 09:29:53;;;;;;;92.80;65.15;;;22.40;57.50;;;;;;4908548;55;21077;-40
2022/11/08 09:34:54;;;;;;;100.65;66.40;;;22.40;57.30;;;;;;4743646;55;21716;-46
2022/11/08 09:39:55;;;;;;;98.00;68.62;;;22.50;57.20;;;;;;4754153;55;21008;-38
2022/11/08 09:45:25;;;;;;;95.53;68.07;;;22.40;57.10;;;;;;4772562;55;21069;-46
2022/11/08 09:50:48;;;;;;;93.75;68.30;;;22.40;56.90;;;;;;4854728;55;21540;-37
2022/11/08 09:56:03;;;;;;;102.72;70.50;;;22.40;57.00;;;;;;4818444;55;21051;-38
2022/11/08 10:01:04;;;;;;;98.60;70.32;;;22.40;57.20;;;;;;4769070;55;21026;-47
2022/11/08 10:06:48;;;;;;;112.25;79.43;;;22.40;57.00;;;;;;4872924;55;21042;-45
2022/11/08 10:15:14;;;;;;;107.78;77.78;;;22.40;56.90;;;;;;4768490;55;21033;-48
2022/11/08 10:21:58;;;;;;;110.22;79.53;;;22.40;57.10;;;;;;4777469;55;21105;-51
2022/11/08 10:27:00;;;;;;;114.95;85.35;;;22.40;54.70;;;;;;4743257;56;21496;-47
2022/11/08 10:32:18;;;;;;;119.62;86.43;;;22.40;56.00;;;;;;4744015;59;21070;-45
2022/11/08 10:37:20;;;;;;;116.70;84.45;;;22.40;56.20;;;;;;4745472;59;21477;-47
2022/11/08 10:42:51;;;;;;;116.60;84.85;;;22.40;56.30;;;;;;4865219;55;21010;-46
2022/11/08 10:47:53;;;;;;;114.35;83.87;;;22.40;56.90;;;;;;4800686;55;21480;-48
2022/11/08 10:53:01;;;;;;;114.93;83.53;;;22.40;56.50;;;;;;4777316;55;21499;-47
2022/11/08 10:58:03;;;;;;;110.47;84.55;;;22.50;56.70;;;;;;4760977;55;20994;-47
2022/11/08 11:03:37;;;;;;;118.82;84.35;;;22.40;56.70;;;;;;4793689;55;21100;-44
2022/11/08 11:08:53;;;;;;;111.88;80.22;;;22.50;57.00;;;;;;4835821;55;20983;-36
2022/11/08 11:14:20;;;;;;;116.97;85.18;;;22.60;57.20;;;;;;4955451;55;21010;-35
2022/11/08 11:19:23;;;;;;;113.55;82.80;;;22.50;57.60;;;;;;4960497;55;20994;-29
2022/11/08 11:24:24;;;;;;;111.75;81.90;;;22.60;57.80;;;;;;4789867;55;21526;-36
2022/11/08 11:29:37;;;;;;;118.13;83.80;;;22.60;57.90;;;;;;4777556;55;21085;-41
2022/11/08 11:34:57;;;;;;;125.43;89.00;;;22.60;58.00;;;;;;4892920;55;20990;-46
2022/11/08 11:41:58;;;;;;;119.85;88.00;;;22.60;58.30;;;;;;4889827;55;21110;-42
2022/11/08 11:47:05;;;;;;;118.30;84.97;;;22.80;58.30;;;;;;4767499;55;20994;-38
2022/11/08 11:52:14;;;;;;;114.20;85.18;;;22.60;58.40;;;;;;4764837;55;21042;-42
2022/11/08 11:59:04;;;;;;;120.15;90.68;;;22.60;58.50;;;;;;4755937;55;21058;-40
2022/11/08 12:07:40;;;;;;;125.97;91.95;;;22.60;58.30;;;;;;4745003;56;21070;-32
2022/11/08 12:15:55;;;;;;;121.20;91.78;;;22.60;58.70;;;;;;4741602;59;21045;-31
2022/11/08 12:22:41;;;;;;;124.80;91.75;;;22.60;58.40;;;;;;4845872;55;21480;-29
2022/11/08 12:28:00;;;;;;;121.27;88.90;;;22.60;58.20;;;;;;4744295;59;21026;-33
2022/11/08 12:33:23;;;;;;;122.03;91.37;;;22.60;58.20;;;;;;4828295;55;21059;-38
2022/11/08 12:39:53;;;;;;;116.40;89.28;;;22.50;58.20;;;;;;4744618;56;21002;-29
2022/11/08 12:46:34;;;;;;;117.78;87.35;;;22.50;58.30;;;;;;4825319;55;20994;-30
2022/11/08 12:55:16;;;;;;;123.22;93.20;;;22.50;58.40;;;;;;4883857;55;21051;-29
2022/11/08 13:00:18;;;;;;;120.55;92.20;;;22.50;58.60;;;;;;4846787;55;20999;-34
2022/11/08 13:05:44;;;;;;;121.20;89.45;;;22.60;58.70;;;;;;4744839;59;20970;-36
2022/11/08 13:11:21;;;;;;;122.47;90.97;;;22.60;58.90;;;;;;4744777;59;20998;-42
2022/11/08 13:16:25;;;;;;;137.52;95.60;;;22.60;58.90;;;;;;4776100;55;21082;-27
2022/11/08 13:21:39;;;;;;;121.55;90.82;;;22.60;58.80;;;;;;4831757;55;21026;-37
2022/11/08 13:26:42;;;;;;;123.38;89.82;;;22.60;59.50;;;;;;4815668;55;21440;-34
2022/11/08 13:32:06;;;;;;;122.10;85.32;;;22.60;59.90;;;;;;4744030;59;21472;-46
2022/11/08 13:44:04;;;;;;;112.12;81.65;;;22.70;61.50;;;;;;4744641;59;21062;-43
2022/11/08 13:49:17;;;;;;;115.68;81.85;;;22.70;60.50;;;;;;4824611;55;21026;-44
2022/11/08 13:54:47;;;;;;;114.15;80.35;;;22.70;61.00;;;;;;5078743;55;20995;-44
2022/11/08 13:59:55;;;;;;;109.00;80.90;;;22.80;60.80;;;;;;4780069;55;21010;-42
2022/11/08 14:05:17;;;;;;;110.88;79.78;;;22.80;61.20;;;;;;4745582;59;21014;-40
2022/11/08 14:10:47;;;;;;;105.40;78.12;;;22.80;61.10;;;;;;4817881;55;21034;-40
2022/11/08 14:16:10;;;;;;;108.07;77.37;;;22.80;61.20;;;;;;4758053;55;21010;-42
2022/11/08 14:21:17;;;;;;;106.12;76.35;;;22.80;61.30;;;;;;4745710;59;21078;-40
2022/11/08 14:26:23;;;;;;;99.00;73.77;;;22.80;61.10;;;;;;4766156;55;21457;-29
2022/11/08 14:31:32;;;;;;;102.03;74.53;;;22.80;61.20;;;;;;4858514;55;21026;-44
2022/11/08 14:36:34;;;;;;;100.85;73.40;;;22.90;61.50;;;;;;4763546;55;21045;-48
2022/11/08 14:41:35;;;;;;;98.18;73.72;;;22.90;61.00;;;;;;4759485;55;21098;-44
2022/11/08 14:46:38;;;;;;;95.53;71.95;;;22.80;61.20;;;;;;4784728;55;21117;-39
2022/11/08 14:51:40;;;;;;;95.40;72.95;;;22.80;61.20;;;;;;4744671;59;21073;-46
2022/11/08 14:56:42;;;;;;;94.57;70.00;;;22.80;61.30;;;;;;4764457;55;21001;-42
2022/11/08 15:01:46;;;;;;;94.22;69.30;;;22.70;61.30;;;;;;4781837;55;21480;-45
2022/11/08 15:06:57;;;;;;;89.57;70.35;;;22.70;61.40;;;;;;4743688;59;21010;-46
2022/11/08 15:12:02;;;;;;;90.87;69.55;;;22.60;61.40;;;;;;4742650;59;21149;-46
2022/11/08 15:17:03;;;;;;;88.85;67.72;;;22.60;61.50;;;;;;4819789;55;21484;-44
2022/11/08 15:22:25;;;;;;;99.43;70.18;;;22.60;61.50;;;;;;4827078;55;21145;-38
2022/11/08 15:27:26;;;;;;;90.85;68.97;;;22.60;61.60;;;;;;4884077;55;21002;-48
2022/11/08 15:32:37;;;;;;;90.20;68.35;;;22.50;61.50;;;;;;4772007;55;21062;-45
2022/11/08 15:37:41;;;;;;;89.50;68.47;;;22.50;61.40;;;;;;5169929;55;21534;-46
2022/11/08 15:42:44;;;;;;;89.75;68.97;;;22.50;61.60;;;;;;5003150;55;21538;-46
2022/11/08 15:47:46;;;;;;;87.12;65.87;;;22.50;61.60;;;;;;4841432;55;21022;-45
2022/11/08 15:52:50;;;;;;;89.03;67.20;;;22.50;61.60;;;;;;4787651;55;21568;-49
2022/11/08 15:57:51;;;;;;;93.15;69.35;;;22.50;61.60;;;;;;4745617;55;21062;-41
2022/11/08 16:02:52;;;;;;;90.68;70.20;;;22.50;61.70;;;;;;4983848;55;21050;-42
2022/11/08 16:07:54;;;;;;;88.47;69.10;;;22.50;61.70;;;;;;4948781;55;21027;-46
2022/11/08 16:12:57;;;;;;;89.13;67.50;;;22.50;61.60;;;;;;4744372;59;21102;-47
2022/11/08 16:17:59;;;;;;;87.60;66.80;;;22.40;61.60;;;;;;4883215;55;21468;-44
2022/11/08 16:23:05;;;;;;;88.12;69.68;;;22.40;61.60;;;;;;4832258;55;21017;-46
2022/11/08 16:28:33;;;;;;;86.67;67.60;;;22.40;61.60;;;;;;4774111;55;20994;-45
2022/11/08 16:33:35;;;;;;;91.22;69.43;;;22.40;61.60;;;;;;4825392;55;21512;-41
2022/11/08 16:38:36;;;;;;;88.28;67.87;;;22.40;61.60;;;;;;4749189;55;21046;-50
2022/11/08 16:43:37;;;;;;;87.55;68.37;;;22.40;61.70;;;;;;4745113;59;21004;-42
2022/11/08 16:48:43;;;;;;;84.68;66.10;;;22.40;61.60;;;;;;4917520;55;21059;-42
2022/11/08 16:53:44;;;;;;;89.57;67.30;;;22.40;61.60;;;;;;4774381;55;21033;-48
2022/11/08 16:58:45;;;;;;;85.35;64.68;;;22.40;61.60;;;;;;4947265;55;21057;-48
2022/11/08 17:03:46;;;;;;;88.72;67.75;;;22.60;61.80;;;;;;4745217;59;21600;-48
2022/11/08 17:08:47;;;;;;;84.68;65.90;;;22.40;61.60;;;;;;4757347;55;21145;-46
2022/11/08 17:13:49;;;;;;;85.30;65.72;;;22.40;61.70;;;;;;4835060;55;21042;-41
2022/11/08 17:18:50;;;;;;;83.60;64.32;;;22.30;61.70;;;;;;4757775;55;21105;-46
2022/11/08 17:23:51;;;;;;;83.20;63.78;;;22.30;61.60;;;;;;4930385;55;21018;-45
2022/11/08 17:28:55;;;;;;;83.68;65.47;;;22.40;61.70;;;;;;4838861;55;21018;-45
2022/11/08 17:33:56;;;;;;;85.40;67.18;;;22.30;61.60;;;;;;4774776;55;21602;-44
2022/11/08 17:38:56;;;;;;;89.40;67.72;;;22.30;61.70;;;;;;4792582;55;21014;-37
2022/11/08 17:43:57;;;;;;;85.20;66.80;;;22.30;61.60;;;;;;4745412;59;21109;-41
2022/11/08 17:48:58;;;;;;;87.68;67.80;;;22.30;61.70;;;;;;4821900;55;21090;-43
2022/11/08 17:53:59;;;;;;;90.97;67.72;;;22.30;61.60;;;;;;4775200;55;21006;-45
2022/11/08 17:59:00;;;;;;;85.55;67.72;;;22.30;61.60;;;;;;4744561;56;20998;-46
2022/11/08 18:04:02;;;;;;;89.93;67.37;;;22.30;61.60;;;;;;4749684;55;21483;-40
2022/11/08 18:09:06;;;;;;;89.07;68.45;;;22.30;61.60;;;;;;4844014;55;21461;-40
2022/11/08 18:14:07;;;;;;;90.70;70.10;;;22.30;61.40;;;;;;4938383;55;21121;-45
2022/11/08 18:19:08;;;;;;;95.12;70.78;;;22.30;61.60;;;;;;4776404;55;20989;-45
2022/11/08 18:24:10;;;;;;;94.53;72.03;;;22.30;61.60;;;;;;4866418;55;21544;-49
2022/11/08 18:29:10;;;;;;;90.78;70.65;;;22.30;61.60;;;;;;4789909;55;21030;-42
2022/11/08 18:34:11;;;;;;;92.85;72.18;;;22.30;62.20;;;;;;4765315;55;21010;-42
2022/11/08 18:39:13;;;;;;;90.87;71.50;;;22.30;61.60;;;;;;4874891;55;21050;-48
2022/11/08 18:44:14;;;;;;;91.05;72.15;;;22.30;61.30;;;;;;4841616;55;21078;-44
2022/11/08 18:49:15;;;;;;;89.47;69.45;;;22.30;61.50;;;;;;5066635;55;21009;-44
2022/11/08 18:54:16;;;;;;;91.12;70.18;;;22.20;61.40;;;;;;4745426;59;20997;-45
2022/11/08 18:59:17;;;;;;;89.18;71.22;;;22.20;61.40;;;;;;4815607;55;21079;-50
2022/11/08 19:04:17;;;;;;;91.65;71.60;;;22.20;61.40;;;;;;4803853;55;21039;-43
2022/11/08 19:09:18;;;;;;;87.75;68.28;;;22.20;61.40;;;;;;4745039;59;21002;-48
2022/11/08 19:14:19;;;;;;;92.50;72.82;;;22.20;61.30;;;;;;4806973;55;21575;-45
2022/11/08 19:19:22;;;;;;;91.47;72.30;;;22.20;62.00;;;;;;4892976;55;20998;-45
2022/11/08 19:24:23;;;;;;;94.28;74.22;;;22.20;61.20;;;;;;4796043;55;21649;-43
2022/11/08 19:29:23;;;;;;;96.25;75.57;;;22.20;61.20;;;;;;4928367;55;21034;-41
2022/11/08 19:34:24;;;;;;;99.53;75.32;;;22.20;61.20;;;;;;4793108;55;20994;-45
2022/11/08 19:39:26;;;;;;;94.57;74.00;;;22.20;61.10;;;;;;4774913;55;21556;-41
2022/11/08 19:44:27;;;;;;;94.30;74.45;;;22.20;61.10;;;;;;4874152;55;21476;-50
2022/11/08 19:49:28;;;;;;;99.37;76.00;;;22.20;61.00;;;;;;4773698;55;21064;-42
2022/11/08 19:54:28;;;;;;;99.30;76.35;;;22.20;61.10;;;;;;4867221;55;21014;-49
2022/11/08 19:59:29;;;;;;;105.00;79.37;;;22.20;61.00;;;;;;4995347;55;21057;-45
2022/11/08 20:04:30;;;;;;;100.18;77.90;;;22.20;60.90;;;;;;4994608;55;21607;-45
2022/11/08 20:09:34;;;;;;;104.05;78.82;;;22.20;61.00;;;;;;4819810;55;21563;-47
2022/11/08 20:14:35;;;;;;;106.10;79.60;;;22.10;60.80;;;;;;4744669;59;21571;-44
2022/11/08 20:19:36;;;;;;;104.22;78.47;;;22.20;60.90;;;;;;4823218;55;20982;-40
2022/11/08 20:24:36;;;;;;;106.47;82.53;;;22.20;60.70;;;;;;4967322;55;21042;-41
2022/11/08 20:29:37;;;;;;;106.30;81.68;;;22.20;60.80;;;;;;4760753;55;21070;-43
2022/11/08 20:34:38;;;;;;;108.18;81.05;;;22.20;60.80;;;;;;4929040;55;20998;-45
2022/11/08 20:39:39;;;;;;;107.93;82.05;;;22.10;60.60;;;;;;4883310;55;21101;-45
2022/11/08 20:44:40;;;;;;;103.05;79.47;;;22.20;60.70;;;;;;4879008;55;21488;-41
2022/11/08 20:49:41;;;;;;;107.78;81.18;;;22.10;60.50;;;;;;4781556;55;21023;-41
2022/11/08 20:54:42;;;;;;;105.57;79.53;;;22.10;60.40;;;;;;4745134;59;21137;-40
2022/11/08 20:59:43;;;;;;;103.72;80.82;;;22.10;60.50;;;;;;4777896;55;21476;-45
2022/11/08 21:04:44;;;;;;;108.18;82.03;;;22.30;60.50;;;;;;4889904;55;21090;-49
2022/11/08 21:09:45;;;;;;;106.78;81.40;;;22.10;60.40;;;;;;4881986;55;21065;-44
2022/11/08 21:14:46;;;;;;;111.03;84.32;;;22.10;60.30;;;;;;4885056;55;21508;-44
2022/11/08 21:19:49;;;;;;;107.78;83.15;;;22.10;60.30;;;;;;5033469;55;21600;-40
2022/11/08 21:24:50;;;;;;;102.72;79.65;;;22.10;60.20;;;;;;4745387;59;21552;-50
2022/11/08 21:29:51;;;;;;;106.20;80.38;;;22.10;60.00;;;;;;4935484;55;21018;-39
2022/11/08 21:34:52;;;;;;;107.63;82.65;;;22.10;60.10;;;;;;5152750;55;20998;-44
2022/11/08 21:39:53;;;;;;;106.60;80.50;;;22.10;60.10;;;;;;4798260;55;20998;-43
2022/11/08 21:44:53;;;;;;;103.90;80.75;;;22.10;60.00;;;;;;4826774;55;21045;-46
2022/11/08 21:49:54;;;;;;;104.10;80.15;;;22.10;60.00;;;;;;4744976;55;21152;-41
2022/11/08 21:54:55;;;;;;;107.90;81.28;;;22.10;59.90;;;;;;4745246;59;21449;-47
2022/11/08 21:59:56;;;;;;;107.03;81.60;;;22.10;59.80;;;;;;4745171;59;21002;-42
2022/11/08 22:04:57;;;;;;;105.50;79.47;;;22.10;59.80;;;;;;4869516;55;21001;-43
2022/11/08 22:09:58;;;;;;;108.57;81.07;;;22.10;59.80;;;;;;4837744;55;21026;-41
2022/11/08 22:14:59;;;;;;;108.18;81.32;;;22.20;59.90;;;;;;4743886;59;21524;-45
2022/11/08 22:19:59;;;;;;;107.68;79.85;;;22.10;59.90;;;;;;5157329;55;21077;-42
2022/11/08 22:25:00;;;;;;;105.82;79.93;;;22.10;59.70;;;;;;4745178;59;21019;-42
2022/11/08 22:30:01;;;;;;;106.82;81.30;;;22.10;59.80;;;;;;4745198;59;21570;-40
2022/11/08 22:35:02;;;;;;;107.18;80.30;;;22.10;59.90;;;;;;4853744;55;21006;-40
2022/11/08 22:40:04;;;;;;;102.45;77.40;;;22.10;59.50;;;;;;4750845;55;21062;-42
2022/11/08 22:45:06;;;;;;;101.28;77.85;;;22.10;59.60;;;;;;4840656;55;21022;-35
2022/11/08 22:50:07;;;;;;;105.10;77.53;;;22.10;59.50;;;;;;5017628;55;21078;-42
2022/11/08 22:55:08;;;;;;;104.80;79.50;;;22.00;59.40;;;;;;4881436;55;21014;-45
2022/11/08 23:00:12;;;;;;;99.60;74.68;;;22.10;59.40;;;;;;4744975;59;21049;-45
2022/11/08 23:05:12;;;;;;;102.07;75.53;;;22.00;59.30;;;;;;4871883;55;21006;-45
2022/11/08 23:10:13;;;;;;;102.57;76.00;;;22.00;59.30;;;;;;4907744;55;21049;-47
2022/11/08 23:25:56;;;;;;;95.60;71.93;;;22.00;59.20;;;;;;4745156;55;21070;-45
2022/11/08 23:36:21;;;;;;;95.53;72.37;;;22.00;59.20;;;;;;4745420;55;21033;-44
2022/11/08 23:46:42;;;;;;;101.10;72.97;;;22.00;59.10;;;;;;4745140;55;21073;-47
2022/11/08 23:51:43;;;;;;;93.60;70.07;;;22.00;59.20;;;;;;4744852;56;21017;-38
2022/11/08 23:56:44;;;;;;;96.75;72.18;;;22.00;59.10;;;;;;4752908;55;21516;-42
